createdAt,value
2022-08-07T00:02:40.589Z,102449.11
2022-08-07T00:05:01.261Z,102452.40
2022-08-07T00:07:40.138Z,102452.05
2022-08-07T00:10:26.558Z,102451.81
2022-08-07T00:12:59.781Z,102457.55
2022-08-07T00:15:38.096Z,102458.56
2022-08-07T00:18:24.283Z,102460.60
2022-08-07T00:20:56.815Z,102463.35
2022-08-07T00:23:28.283Z,102456.50
2022-08-07T00:26:00.100Z,102455.41
2022-08-07T00:28:33.152Z,102452.59
2022-08-07T00:31:12.760Z,102450.28
2022-08-07T00:33:47.395Z,102454.65
2022-08-07T00:36:16.811Z,102451.31
2022-08-07T00:38:45.291Z,102446.93
2022-08-07T00:41:14.696Z,102443.44
2022-08-07T00:44:01.847Z,102440.45
2022-08-07T00:46:33.104Z,102442.34
2022-08-07T00:49:03.391Z,102441.09
2022-08-07T00:51:58.285Z,102441.58
2022-08-07T00:54:20.504Z,102441.04
2022-08-07T00:56:51.614Z,102445.70
2022-08-07T00:59:20.002Z,102445.34
2022-08-07T01:02:02.839Z,102451.04
2022-08-07T01:04:37.430Z,102449.60
2022-08-07T01:07:13.851Z,102451.33
2022-08-07T01:10:06.066Z,102448.86
2022-08-07T01:12:31.211Z,102450.56
2022-08-07T01:18:17.709Z,102445.85
2022-08-07T01:21:22.655Z,102450.39
2022-08-07T01:23:53.976Z,102445.83
2022-08-07T01:26:23.379Z,102441.09
2022-08-07T01:28:55.529Z,102440.02
2022-08-07T01:31:41.810Z,102441.77
2022-08-07T01:34:14.573Z,102444.91
2022-08-07T01:36:52.485Z,102443.16
2022-08-07T01:39:39.585Z,102447.86
2022-08-07T01:42:37.697Z,102443.48
2022-08-07T01:45:17.786Z,102446.39
2022-08-07T01:48:18.139Z,102445.73
2022-08-07T01:50:40.304Z,102443.27
2022-08-07T01:53:20.866Z,102443.77
2022-08-07T01:56:03.817Z,102445.14
2022-08-07T01:58:41.102Z,102446.36
2022-08-07T02:01:59.457Z,102452.44
2022-08-07T02:04:26.674Z,102455.40
2022-08-07T02:07:01.839Z,102453.63
2022-08-07T02:09:33.809Z,102456.91
2022-08-07T02:12:29.419Z,102461.44
2022-08-07T02:15:06.725Z,102459.28
2022-08-07T02:17:49.821Z,102456.63
2022-08-07T02:20:23.864Z,102455.73
2022-08-07T02:23:04.257Z,102454.31
2022-08-07T02:26:26.721Z,102459.52
2022-08-07T02:28:27.625Z,102462.44
2022-08-07T02:31:19.017Z,102463.80
2022-08-07T02:34:01.857Z,102454.67
2022-08-07T02:36:34.777Z,102454.14
2022-08-07T02:39:17.490Z,102453.59
2022-08-07T02:42:10.207Z,102455.48
2022-08-07T02:44:48.158Z,102451.48
2022-08-07T02:47:23.719Z,102452.36
2022-08-07T02:49:59.083Z,102454.61
2022-08-07T02:52:50.763Z,102453.91
2022-08-07T02:55:28.263Z,102454.60
2022-08-07T02:58:21.653Z,102451.91
2022-08-07T03:00:52.874Z,102451.34
2022-08-07T03:03:23.659Z,102447.45
2022-08-07T03:05:56.502Z,102448.48
2022-08-07T03:08:26.869Z,102444.60
2022-08-07T03:10:59.312Z,102442.89
2022-08-07T03:13:38.685Z,102441.83
2022-08-07T03:16:07.831Z,102440.36
2022-08-07T03:18:36.427Z,102441.02
2022-08-07T03:21:08.547Z,102437.85
2022-08-07T03:24:20.932Z,102440.13
2022-08-07T03:26:33.751Z,102442.55
2022-08-07T03:29:11.308Z,102444.45
2022-08-07T03:31:50.031Z,102444.80
2022-08-07T03:34:22.389Z,102445.35
2022-08-07T03:36:57.350Z,102449.77
2022-08-07T03:39:46.437Z,102448.45
2022-08-07T03:42:18.951Z,102446.41
2022-08-07T03:44:53.545Z,102442.59
2022-08-07T03:47:28.029Z,102448.61
2022-08-07T03:49:58.923Z,102449.17
2022-08-07T03:52:32.322Z,102449.77
2022-08-07T03:55:07.405Z,102452.29
2022-08-07T03:58:34.295Z,102453.72
2022-08-07T04:00:33.868Z,102457.98
2022-08-07T04:03:05.984Z,102452.80
2022-08-07T04:05:42.201Z,102452.58
2022-08-07T04:08:21.206Z,102452.70
2022-08-07T04:10:54.459Z,102457.50
2022-08-07T04:14:10.727Z,102460.59
2022-08-07T04:16:32.163Z,102463.15
2022-08-07T04:19:12.805Z,102462.56
2022-08-07T04:21:58.922Z,102463.58
2022-08-07T04:24:38.858Z,102465.61
2022-08-07T04:27:20.246Z,102465.19
2022-08-07T04:30:02.152Z,102463.27
2022-08-07T04:32:44.973Z,102465.17
2022-08-07T04:35:16.932Z,102464.11
2022-08-07T04:38:02.795Z,102467.27
2022-08-07T04:40:34.452Z,102469.39
2022-08-07T04:43:03.533Z,102465.75
2022-08-07T04:45:57.257Z,102467.40
2022-08-07T04:48:38.219Z,102465.99
2022-08-07T04:51:27.349Z,102464.59
2022-08-07T04:54:12.242Z,102457.13
2022-08-07T04:58:14.294Z,102457.66
2022-08-07T05:00:09.666Z,102464.45
2022-08-07T05:02:43.518Z,102453.52
2022-08-07T05:05:52.887Z,102464.45
2022-08-07T05:08:59.225Z,102467.59
2022-08-07T05:11:57.639Z,102466.03
2022-08-07T05:14:56.349Z,102463.76
2022-08-07T05:17:52.262Z,102466.58
2022-08-07T05:20:17.326Z,102468.98
2022-08-07T05:22:49.860Z,102469.67
2022-08-07T05:25:36.742Z,102470.96
2022-08-07T05:28:20.141Z,102465.43
2022-08-07T05:30:54.549Z,102469.55
2022-08-07T05:33:24.068Z,102469.66
2022-08-07T05:35:55.497Z,102466.72
2022-08-07T05:38:58.373Z,102467.52
2022-08-07T05:41:15.820Z,102462.09
2022-08-07T05:44:07.739Z,102467.15
2022-08-07T05:46:38.737Z,102469.11
2022-08-07T05:49:12.409Z,102467.59
2022-08-07T05:51:46.510Z,102468.19
2022-08-07T05:54:31.055Z,102466.85
2022-08-07T05:57:09.918Z,102468.09
2022-08-07T05:59:57.178Z,102474.80
2022-08-07T06:02:35.829Z,102470.18
2022-08-07T06:05:15.844Z,102464.95
2022-08-07T06:08:29.404Z,102471.96
2022-08-07T06:10:39.298Z,102470.58
2022-08-07T06:13:13.429Z,102477.23
2022-08-07T06:15:46.047Z,102482.42
2022-08-07T06:18:23.109Z,102478.65
2022-08-07T06:22:11.787Z,102478.40
2022-08-07T06:24:37.160Z,102476.77
2022-08-07T06:26:32.872Z,102478.91
2022-08-07T06:29:04.201Z,102484.34
2022-08-07T06:31:46.516Z,102482.98
2022-08-07T06:34:20.581Z,102476.28
2022-08-07T06:36:51.817Z,102481.67
2022-08-07T06:40:17.162Z,102480.83
2022-08-07T06:42:34.933Z,102485.03
2022-08-07T06:45:18.446Z,102487.70
2022-08-07T06:47:58.631Z,102486.98
2022-08-07T06:50:43.219Z,102490.19
2022-08-07T06:54:12.169Z,102486.08
2022-08-07T06:56:07.480Z,102484.31
2022-08-07T07:00:14.999Z,102483.49
2022-08-07T07:01:44.132Z,102485.31
2022-08-07T07:04:32.389Z,102490.02
2022-08-07T07:07:10.404Z,102488.30
2022-08-07T07:09:50.824Z,102487.31
2022-08-07T07:12:48.729Z,102486.29
2022-08-07T07:15:26.070Z,102486.91
2022-08-07T07:18:05.591Z,102487.65
2022-08-07T07:20:37.843Z,102487.14
2022-08-07T07:24:06.133Z,102487.27
2022-08-07T07:26:35.841Z,102488.08
2022-08-07T07:29:39.918Z,102487.55
2022-08-07T07:31:55.759Z,102490.29
2022-08-07T07:34:31.218Z,102488.94
2022-08-07T07:37:14.254Z,102488.46
2022-08-07T07:39:54.261Z,102489.45
2022-08-07T07:42:32.885Z,102488.04
2022-08-07T07:45:06.555Z,102484.95
2022-08-07T07:47:51.956Z,102480.79
2022-08-07T07:50:35.219Z,102480.55
2022-08-07T07:53:20.560Z,102477.78
2022-08-07T07:56:00.792Z,102480.61
2022-08-07T07:58:40.285Z,102483.65
2022-08-07T08:02:03.811Z,102482.60
2022-08-07T08:04:10.512Z,102485.81
2022-08-07T08:06:50.895Z,102480.63
2022-08-07T08:09:29.157Z,102486.09
2022-08-07T08:12:03.927Z,102484.30
2022-08-07T08:14:36.336Z,102481.88
2022-08-07T08:17:55.283Z,102484.83
2022-08-07T08:20:23.212Z,102480.41
2022-08-07T08:23:15.851Z,102478.98
2022-08-07T08:26:07.133Z,102479.93
2022-08-07T08:28:43.462Z,102488.23
2022-08-07T08:31:22.744Z,102487.30
2022-08-07T08:34:00.871Z,102488.17
2022-08-07T08:36:33.718Z,102487.74
2022-08-07T08:39:03.945Z,102486.96
2022-08-07T08:41:57.733Z,102490.96
2022-08-07T08:44:33.281Z,102493.95
2022-08-07T08:47:47.408Z,102491.33
2022-08-07T08:50:39.158Z,102490.08
2022-08-07T08:53:16.733Z,102491.67
2022-08-07T08:55:58.799Z,102489.60
2022-08-07T08:58:40.147Z,102491.35
2022-08-07T09:01:19.483Z,102495.10
2022-08-07T09:04:25.922Z,102494.66
2022-08-07T09:07:26.387Z,102493.05
2022-08-07T09:10:15.401Z,102492.16
2022-08-07T09:12:59.819Z,102489.94
2022-08-07T09:16:24.812Z,102488.20
2022-08-07T09:19:51.716Z,102486.21
2022-08-07T09:24:33.794Z,102482.33
2022-08-07T09:25:26.097Z,102481.50
2022-08-07T09:30:01.863Z,102479.18
2022-08-07T09:31:08.394Z,102479.36
2022-08-07T09:33:57.514Z,102474.41
2022-08-07T09:36:37.519Z,102479.04
2022-08-07T09:39:55.523Z,102477.83
2022-08-07T09:42:44.065Z,102474.92
2022-08-07T09:47:51.294Z,102466.48
2022-08-07T09:50:01.117Z,102462.88
2022-08-07T09:52:10.428Z,102460.82
2022-08-07T09:54:47.163Z,102467.89
2022-08-07T09:57:46.698Z,102462.81
2022-08-07T10:00:20.414Z,102463.16
2022-08-07T10:03:08.068Z,102461.44
2022-08-07T10:06:25.162Z,102460.88
2022-08-07T10:09:59.191Z,102462.52
2022-08-07T10:12:53.321Z,102461.90
2022-08-07T10:15:47.539Z,102459.42
2022-08-07T10:18:45.166Z,102449.02
2022-08-07T10:22:12.021Z,102451.24
2022-08-07T10:24:31.077Z,102449.33
2022-08-07T10:27:45.867Z,102447.34
2022-08-07T10:30:27.480Z,102447.69
2022-08-07T10:33:15.029Z,102440.12
2022-08-07T10:36:10.846Z,102445.98
2022-08-07T10:39:06.209Z,102443.94
2022-08-07T10:41:51.924Z,102439.77
2022-08-07T10:44:28.678Z,102436.17
2022-08-07T10:47:27.206Z,102442.08
2022-08-07T10:50:29.236Z,102439.86
2022-08-07T10:53:21.568Z,102440.73
2022-08-07T10:56:05.386Z,102439.77
2022-08-07T10:58:46.046Z,102437.83
2022-08-07T11:02:12.357Z,102435.35
2022-08-07T11:05:10.747Z,102436.65
2022-08-07T11:07:58.784Z,102431.16
2022-08-07T11:10:41.058Z,102430.42
2022-08-07T11:14:44.810Z,102427.95
2022-08-07T11:16:34.376Z,102427.60
2022-08-07T11:19:21.352Z,102421.92
2022-08-07T11:22:37.246Z,102424.30
2022-08-07T11:25:22.060Z,102421.35
2022-08-07T11:28:17.561Z,102417.13
2022-08-07T11:30:55.984Z,102422.59
2022-08-07T11:33:58.782Z,102418.92
2022-08-07T11:36:38.302Z,102417.30
2022-08-07T11:39:20.738Z,102414.08
2022-08-07T11:42:03.211Z,102420.81
2022-08-07T11:44:57.702Z,102425.13
2022-08-07T11:47:59.049Z,102422.02
2022-08-07T11:50:57.603Z,102420.64
2022-08-07T11:54:02.670Z,102418.05
2022-08-07T11:56:41.404Z,102428.02
2022-08-07T12:00:11.952Z,102428.02
2022-08-07T12:02:52.181Z,102420.48
2022-08-07T12:05:59.583Z,102420.13
2022-08-07T12:08:34.946Z,102420.56
2022-08-07T12:11:20.380Z,102425.27
2022-08-07T12:13:49.555Z,102420.60
2022-08-07T12:16:30.264Z,102416.85
2022-08-07T12:19:14.626Z,102414.69
2022-08-07T12:22:37.988Z,102413.61
2022-08-07T12:26:03.337Z,102411.25
2022-08-07T12:28:53.928Z,102409.55
2022-08-07T12:31:53.304Z,102401.02
2022-08-07T12:34:28.336Z,102398.81
2022-08-07T12:36:59.814Z,102398.70
2022-08-07T12:39:44.377Z,102393.59
2022-08-07T12:42:27.605Z,102395.02
2022-08-07T12:45:06.448Z,102391.10
2022-08-07T12:47:46.130Z,102387.75
2022-08-07T12:50:38.420Z,102395.89
2022-08-07T12:54:03.241Z,102392.67
2022-08-07T12:56:51.354Z,102390.23
2022-08-07T12:59:33.333Z,102397.15
2022-08-07T13:02:32.993Z,102394.73
2022-08-07T13:06:02.758Z,102392.64
2022-08-07T13:08:27.854Z,102391.10
2022-08-07T13:11:09.267Z,102391.31
2022-08-07T13:14:07.499Z,102390.27
2022-08-07T13:16:46.847Z,102395.05
2022-08-07T13:19:45.808Z,102382.89
2022-08-07T13:22:38.067Z,102385.83
2022-08-07T13:25:24.154Z,102382.98
2022-08-07T13:28:11.178Z,102381.59
2022-08-07T13:31:13.168Z,102380.58
2022-08-07T13:34:32.788Z,102376.13
2022-08-07T13:36:45.296Z,102376.38
2022-08-07T13:39:49.354Z,102376.59
2022-08-07T13:42:10.485Z,102379.77
2022-08-07T13:44:40.583Z,102376.60
2022-08-07T13:47:15.162Z,102378.59
2022-08-07T13:50:33.596Z,102377.43
2022-08-07T13:52:41.409Z,102377.48
2022-08-07T13:55:19.556Z,102378.08
2022-08-07T13:58:31.573Z,102380.98
2022-08-07T14:01:09.080Z,102382.45
2022-08-07T14:04:06.873Z,102380.52
2022-08-07T14:06:34.673Z,102378.55
2022-08-07T14:09:05.116Z,102372.81
2022-08-07T14:12:00.311Z,102377.70
2022-08-07T14:14:56.425Z,102375.52
2022-08-07T14:18:12.514Z,102370.38
2022-08-07T14:20:39.998Z,102366.81
2022-08-07T14:23:31.675Z,102364.86
2022-08-07T14:30:05.395Z,102362.84
2022-08-07T14:32:02.576Z,102358.77
2022-08-07T14:34:33.636Z,102357.38
2022-08-07T14:37:03.674Z,102361.45
2022-08-07T14:40:19.724Z,102355.10
2022-08-07T14:42:32.511Z,102351.45
2022-08-07T14:45:20.865Z,102356.21
2022-08-07T14:47:59.028Z,102351.98
2022-08-07T14:50:31.630Z,102347.75
2022-08-07T14:53:09.834Z,102346.85
2022-08-07T14:55:56.226Z,102346.84
2022-08-07T14:58:31.633Z,102347.70
2022-08-07T15:03:53.509Z,102351.73
2022-08-07T15:06:28.101Z,102347.67
2022-08-07T15:09:59.293Z,102347.34
2022-08-07T15:12:01.563Z,102345.58
2022-08-07T15:14:32.783Z,102347.93
2022-08-07T15:17:05.472Z,102346.17
2022-08-07T15:20:33.046Z,102344.27
2022-08-07T15:22:53.970Z,102343.13
2022-08-07T15:25:36.812Z,102337.65
2022-08-07T15:28:36.173Z,102335.42
2022-08-07T15:31:05.256Z,102337.08
2022-08-07T15:33:58.442Z,102332.10
2022-08-07T15:37:03.771Z,102331.45
2022-08-07T15:39:16.838Z,102330.07
2022-08-07T15:42:43.485Z,102329.73
2022-08-07T15:44:56.087Z,102327.64
2022-08-07T15:47:59.951Z,102326.95
2022-08-07T15:50:37.964Z,102326.65
2022-08-07T15:53:52.334Z,102323.02
2022-08-07T15:56:24.938Z,102327.18
2022-08-07T15:58:55.460Z,102326.34
2022-08-07T16:01:38.617Z,102328.17
2022-08-07T16:04:14.796Z,102328.96
2022-08-07T16:06:56.229Z,102333.79
2022-08-07T16:09:52.153Z,102329.45
2022-08-07T16:12:38.059Z,102329.89
2022-08-07T16:15:42.158Z,102328.02
2022-08-07T16:18:10.231Z,102330.56
2022-08-07T16:20:55.221Z,102330.10
2022-08-07T16:23:58.603Z,102328.81
2022-08-07T16:27:05.853Z,102325.23
2022-08-07T16:30:30.116Z,102323.23
2022-08-07T16:34:03.256Z,102325.64
2022-08-07T16:36:31.286Z,102327.39
2022-08-07T16:39:33.448Z,102326.30
2022-08-07T16:42:06.647Z,102330.51
2022-08-07T16:46:21.280Z,102330.42
2022-08-07T16:48:09.304Z,102329.84
2022-08-07T16:51:20.348Z,102325.88
2022-08-07T16:54:33.107Z,102325.14
2022-08-07T16:58:02.015Z,102324.90
2022-08-07T17:00:16.071Z,102322.52
2022-08-07T17:03:59.827Z,102325.44
2022-08-07T17:06:50.196Z,102323.95
2022-08-07T17:10:06.421Z,102330.09
2022-08-07T17:12:38.837Z,102331.59
2022-08-07T17:15:44.351Z,102335.04
2022-08-07T17:18:28.537Z,102335.14
2022-08-07T17:20:56.651Z,102335.06
2022-08-07T17:23:56.253Z,102334.62
2022-08-07T17:26:35.835Z,102336.30
2022-08-07T17:30:16.192Z,102334.45
2022-08-07T17:32:52.087Z,102337.73
2022-08-07T17:35:51.436Z,102339.43
2022-08-07T17:38:33.299Z,102338.49
2022-08-07T17:42:02.086Z,102340.16
2022-08-07T17:44:33.256Z,102340.61
2022-08-07T17:47:16.762Z,102346.88
2022-08-07T17:49:56.593Z,102348.02
2022-08-07T17:52:32.826Z,102343.14
2022-08-07T17:55:06.303Z,102343.35
2022-08-07T17:57:58.665Z,102341.46
2022-08-07T18:00:49.087Z,102341.33
2022-08-07T18:04:04.403Z,102344.20
2022-08-07T18:06:38.175Z,102344.45
2022-08-07T18:09:08.547Z,102346.45
2022-08-07T18:12:17.523Z,102354.43
2022-08-07T18:15:08.410Z,102358.03
2022-08-07T18:18:33.105Z,102360.56
2022-08-07T18:21:12.639Z,102362.20
2022-08-07T18:23:57.181Z,102362.61
2022-08-07T18:27:10.970Z,102363.89
2022-08-07T18:30:05.226Z,102362.02
2022-08-07T18:33:15.107Z,102369.12
2022-08-07T18:36:01.710Z,102369.52
2022-08-07T18:38:55.037Z,102372.56
2022-08-07T18:41:44.832Z,102371.40
2022-08-07T18:45:39.905Z,102376.73
2022-08-07T18:47:45.020Z,102381.73
2022-08-07T18:50:47.255Z,102391.77
2022-08-07T18:53:46.317Z,102390.76
2022-08-07T18:56:30.869Z,102393.45
2022-08-07T18:59:06.057Z,102395.07
2022-08-07T19:01:58.921Z,102395.46
2022-08-07T19:05:14.982Z,102399.21
2022-08-07T19:08:07.446Z,102399.07
2022-08-07T19:10:55.506Z,102402.80
2022-08-07T19:13:49.953Z,102406.01
2022-08-07T19:17:00.748Z,102403.58
2022-08-07T19:19:46.362Z,102403.77
2022-08-07T19:22:31.305Z,102407.49
2022-08-07T19:25:05.713Z,102410.16
2022-08-07T19:28:29.555Z,102413.34
2022-08-07T19:31:06.452Z,102413.89
2022-08-07T19:33:34.601Z,102415.13
2022-08-07T19:36:05.160Z,102410.73
2022-08-07T19:38:53.178Z,102412.84
2022-08-07T19:41:44.476Z,102415.13
2022-08-07T19:44:21.389Z,102415.48
2022-08-07T19:46:57.778Z,102417.23
2022-08-07T19:49:58.169Z,102419.16
2022-08-07T19:52:18.878Z,102420.57
2022-08-07T19:54:56.573Z,102421.27
2022-08-07T19:57:59.905Z,102417.74
2022-08-07T20:00:29.339Z,102418.80
2022-08-07T20:03:03.825Z,102423.36
2022-08-07T20:05:37.912Z,102422.30
2022-08-07T20:08:27.972Z,102422.64
2022-08-07T20:11:01.835Z,102420.17
2022-08-07T20:13:41.810Z,102419.98
2022-08-07T20:16:32.365Z,102419.45
2022-08-07T20:19:05.440Z,102419.27
2022-08-07T20:21:42.171Z,102418.92
2022-08-07T20:24:22.127Z,102422.63
2022-08-07T20:26:54.441Z,102424.40
2022-08-07T20:29:48.180Z,102425.11
2022-08-07T20:32:22.605Z,102432.69
2022-08-07T20:35:09.021Z,102431.65
2022-08-07T20:37:55.213Z,102431.84
2022-08-07T20:40:33.250Z,102433.27
2022-08-07T20:43:14.560Z,102436.96
2022-08-07T20:46:26.044Z,102438.39
2022-08-07T20:48:57.983Z,102441.74
2022-08-07T20:51:35.875Z,102445.09
2022-08-07T20:54:12.137Z,102442.59
2022-08-07T20:56:50.121Z,102441.00
2022-08-07T21:00:05.593Z,102442.25
2022-08-07T21:02:38.422Z,102441.90
2022-08-07T21:05:16.180Z,102442.61
2022-08-07T21:07:49.781Z,102443.67
2022-08-07T21:10:25.206Z,102450.70
2022-08-07T21:13:03.692Z,102450.18
2022-08-07T21:15:47.478Z,102446.50
2022-08-07T21:18:27.905Z,102446.85
2022-08-07T21:20:59.389Z,102444.92
2022-08-07T21:23:49.302Z,102444.91
2022-08-07T21:26:52.877Z,102444.56
2022-08-07T21:29:30.647Z,102442.10
2022-08-07T21:33:00.167Z,102445.27
2022-08-07T21:36:05.928Z,102447.37
2022-08-07T21:38:49.733Z,102443.67
2022-08-07T21:41:52.222Z,102448.06
2022-08-07T21:44:44.864Z,102450.52
2022-08-07T21:47:37.961Z,102449.29
2022-08-07T21:50:17.335Z,102451.22
2022-08-07T21:53:26.737Z,102446.81
2022-08-07T21:56:37.819Z,102443.46
2022-08-07T22:00:02.976Z,102446.77
2022-08-07T22:02:45.031Z,102449.00
2022-08-07T22:05:22.138Z,102445.13
2022-08-07T22:08:10.274Z,102445.80
2022-08-07T22:10:42.481Z,102442.09
2022-08-07T22:13:14.531Z,102445.74
2022-08-07T22:16:40.143Z,102445.55
2022-08-07T22:18:47.221Z,102445.70
2022-08-07T22:22:02.126Z,102449.36
2022-08-07T22:24:21.408Z,102449.34
2022-08-07T22:27:04.264Z,102445.48
2022-08-07T22:30:01.146Z,102450.57
2022-08-07T22:32:55.869Z,102448.81
2022-08-07T22:35:39.622Z,102446.36
2022-08-07T22:38:37.079Z,102447.59
2022-08-07T22:41:22.415Z,102445.83
2022-08-07T22:44:18.580Z,102447.58
2022-08-07T22:47:04.204Z,102440.39
2022-08-07T22:49:54.952Z,102437.41
2022-08-07T22:52:52.417Z,102432.85
2022-08-07T22:55:45.440Z,102431.98
2022-08-07T22:58:34.786Z,102427.61
2022-08-07T23:01:27.402Z,102427.63
2022-08-07T23:04:56.869Z,102423.59
2022-08-07T23:07:42.174Z,102425.20
2022-08-07T23:10:38.429Z,102421.52
2022-08-07T23:13:29.071Z,102421.36
2022-08-07T23:16:43.308Z,102420.31
2022-08-07T23:19:48.403Z,102418.20
2022-08-07T23:22:32.798Z,102423.48
2022-08-07T23:25:31.649Z,102419.08
2022-08-07T23:28:22.948Z,102431.90
2022-08-07T23:31:11.183Z,102432.78
2022-08-07T23:34:35.327Z,102437.00
2022-08-07T23:37:20.155Z,102439.98
2022-08-07T23:39:55.599Z,102440.53
2022-08-07T23:42:23.903Z,102442.64
2022-08-07T23:45:03.744Z,102446.34
2022-08-07T23:48:02.860Z,102442.66
2022-08-07T23:50:45.409Z,102441.63
2022-08-07T23:53:51.548Z,102439.70
2022-08-07T23:56:31.362Z,102435.31
2022-08-07T23:59:10.828Z,102432.68
